sensor_id;sensor_type;location;lat;lon;timestamp;pressure;altitude;pressure_sealevel;temperature;humidity
30724;BME280;17473;52.286;20.930;2022-08-01T00:00:16;99921.72;;;17.43;92.82
30724;BME280;17473;52.286;20.930;2022-08-01T00:02:43;99922.63;;;17.40;93.28
30724;BME280;17473;52.286;20.930;2022-08-01T00:05:10;99927.06;;;17.43;93.19
30724;BME280;17473;52.286;20.930;2022-08-01T00:07:38;99924.41;;;17.38;93.14
30724;BME280;17473;52.286;20.930;2022-08-01T00:10:09;99919.06;;;17.36;93.31
30724;BME280;17473;52.286;20.930;2022-08-01T00:12:37;99921.72;;;17.38;93.05
30724;BME280;17473;52.286;20.930;2022-08-01T00:15:06;99920.84;;;17.34;93.18
30724;BME280;17473;52.286;20.930;2022-08-01T00:17:34;99905.75;;;17.26;93.81
30724;BME280;17473;52.286;20.930;2022-08-01T00:20:03;99906.63;;;17.29;93.44
30724;BME280;17473;52.286;20.930;2022-08-01T00:22:34;99898.63;;;17.29;93.58
30724;BME280;17473;52.286;20.930;2022-08-01T00:25:02;99905.75;;;17.27;93.94
30724;BME280;17473;52.286;20.930;2022-08-01T00:27:30;99907.50;;;17.34;93.47
30724;BME280;17473;52.286;20.930;2022-08-01T00:30:04;99899.50;;;17.31;93.55
30724;BME280;17473;52.286;20.930;2022-08-01T00:32:43;99903.97;;;17.29;93.99
30724;BME280;17473;52.286;20.930;2022-08-01T00:35:10;99891.53;;;17.24;93.74
30724;BME280;17473;52.286;20.930;2022-08-01T00:37:37;99900.41;;;17.27;93.92
30724;BME280;17473;52.286;20.930;2022-08-01T00:40:06;99896.84;;;17.24;94.06
30724;BME280;17473;52.286;20.930;2022-08-01T00:42:33;99896.84;;;17.24;93.86
30724;BME280;17473;52.286;20.930;2022-08-01T00:45:06;99900.41;;;17.23;94.30
30724;BME280;17473;52.286;20.930;2022-08-01T00:47:34;99896.84;;;17.22;93.83
30724;BME280;17473;52.286;20.930;2022-08-01T00:50:03;99893.31;;;17.17;94.20
30724;BME280;17473;52.286;20.930;2022-08-01T00:52:32;99899.50;;;17.13;94.10
30724;BME280;17473;52.286;20.930;2022-08-01T00:54:59;99894.19;;;17.14;94.27
30724;BME280;17473;52.286;20.930;2022-08-01T00:57:26;99887.09;;;17.07;94.58
30724;BME280;17473;52.286;20.930;2022-08-01T01:00:14;99896.84;;;17.07;94.61
30724;BME280;17473;52.286;20.930;2022-08-01T01:02:41;99900.44;;;17.07;94.52
30724;BME280;17473;52.286;20.930;2022-08-01T01:05:09;99905.75;;;17.05;94.57
30724;BME280;17473;52.286;20.930;2022-08-01T01:07:50;99906.66;;;17.06;94.15
30724;BME280;17473;52.286;20.930;2022-08-01T01:13:13;99912.00;;;16.97;94.46
30724;BME280;17473;52.286;20.930;2022-08-01T01:16:00;99910.19;;;16.97;94.04
30724;BME280;17473;52.286;20.930;2022-08-01T01:18:37;99902.19;;;17.02;94.26
30724;BME280;17473;52.286;20.930;2022-08-01T01:24:21;99902.16;;;16.88;94.51
30724;BME280;17473;52.286;20.930;2022-08-01T01:29:50;99898.59;;;16.86;95.09
30724;BME280;17473;52.286;20.930;2022-08-01T01:32:49;99896.84;;;16.85;94.54
30724;BME280;17473;52.286;20.930;2022-08-01T01:35:30;99905.72;;;16.82;94.51
30724;BME280;17473;52.286;20.930;2022-08-01T01:38:09;99904.84;;;16.80;94.54
30724;BME280;17473;52.286;20.930;2022-08-01T01:40:37;99908.38;;;16.79;94.43
30724;BME280;17473;52.286;20.930;2022-08-01T01:43:08;99903.06;;;16.74;94.45
30724;BME280;17473;52.286;20.930;2022-08-01T01:45:37;99898.59;;;16.73;94.53
30724;BME280;17473;52.286;20.930;2022-08-01T01:48:06;99901.28;;;16.73;94.25
30724;BME280;17473;52.286;20.930;2022-08-01T01:50:34;99899.50;;;16.76;94.20
30724;BME280;17473;52.286;20.930;2022-08-01T01:53:03;99900.38;;;16.70;94.07
30724;BME280;17473;52.286;20.930;2022-08-01T01:55:31;99911.03;;;16.73;94.28
30724;BME280;17473;52.286;20.930;2022-08-01T01:58:16;99903.94;;;16.67;93.87
30724;BME280;17473;52.286;20.930;2022-08-01T02:00:45;99896.81;;;16.63;93.88
30724;BME280;17473;52.286;20.930;2022-08-01T02:03:16;99897.72;;;16.70;93.71
30724;BME280;17473;52.286;20.930;2022-08-01T02:05:45;99895.91;;;16.61;93.94
30724;BME280;17473;52.286;20.930;2022-08-01T02:08:16;99888.81;;;16.57;94.14
30724;BME280;17473;52.286;20.930;2022-08-01T02:10:45;99891.47;;;16.55;94.31
30724;BME280;17473;52.286;20.930;2022-08-01T02:13:34;99899.47;;;16.54;94.31
30724;BME280;17473;52.286;20.930;2022-08-01T02:16:03;99903.91;;;16.49;94.37
30724;BME280;17473;52.286;20.930;2022-08-01T02:18:32;99895.91;;;16.49;94.19
30724;BME280;17473;52.286;20.930;2022-08-01T02:21:00;99890.56;;;16.42;94.18
30724;BME280;17473;52.286;20.930;2022-08-01T02:23:32;99883.44;;;16.35;94.22
30724;BME280;17473;52.286;20.930;2022-08-01T02:26:01;99895.00;;;16.42;93.99
30724;BME280;17473;52.286;20.930;2022-08-01T02:28:47;99894.13;;;16.43;93.53
30724;BME280;17473;52.286;20.930;2022-08-01T02:31:20;99897.66;;;16.37;93.33
30724;BME280;17473;52.286;20.930;2022-08-01T02:34:00;99896.72;;;16.27;93.63
30724;BME280;17473;52.286;20.930;2022-08-01T02:36:30;99893.16;;;16.24;93.88
30724;BME280;17473;52.286;20.930;2022-08-01T02:39:11;99894.06;;;16.20;93.74
30724;BME280;17473;52.286;20.930;2022-08-01T02:41:47;99914.47;;;16.24;94.26
30724;BME280;17473;52.286;20.930;2022-08-01T02:44:23;99903.84;;;16.21;93.93
30724;BME280;17473;52.286;20.930;2022-08-01T02:46:57;99894.94;;;16.14;94.39
30724;BME280;17473;52.286;20.930;2022-08-01T02:49:36;99895.81;;;16.15;93.85
30724;BME280;17473;52.286;20.930;2022-08-01T02:52:08;99907.34;;;16.12;94.09
30724;BME280;17473;52.286;20.930;2022-08-01T02:54:37;99889.53;;;16.02;93.94
30724;BME280;17473;52.286;20.930;2022-08-01T02:57:07;99904.69;;;16.10;93.90
30724;BME280;17473;52.286;20.930;2022-08-01T02:59:40;99893.09;;;15.99;94.07
30724;BME280;17473;52.286;20.930;2022-08-01T03:02:11;99911.72;;;15.99;94.25
30724;BME280;17473;52.286;20.930;2022-08-01T03:04:40;99913.50;;;16.02;93.88
30724;BME280;17473;52.286;20.930;2022-08-01T03:07:10;99916.19;;;16.06;93.55
30724;BME280;17473;52.286;20.930;2022-08-01T03:09:40;99913.53;;;16.05;93.39
30724;BME280;17473;52.286;20.930;2022-08-01T03:12:20;99920.59;;;15.96;93.66
30724;BME280;17473;52.286;20.930;2022-08-01T03:14:53;99921.53;;;16.03;93.17
30724;BME280;17473;52.286;20.930;2022-08-01T03:17:24;99925.03;;;15.99;93.41
30724;BME280;17473;52.286;20.930;2022-08-01T03:19:56;99909.06;;;15.98;93.30
30724;BME280;17473;52.286;20.930;2022-08-01T03:22:25;99917.94;;;15.98;93.53
30724;BME280;17473;52.286;20.930;2022-08-01T03:24:54;99916.19;;;15.99;93.49
30724;BME280;17473;52.286;20.930;2022-08-01T03:27:24;99903.72;;;15.93;92.92
30724;BME280;17473;52.286;20.930;2022-08-01T03:29:55;99917.97;;;16.00;93.21
30724;BME280;17473;52.286;20.930;2022-08-01T03:32:23;99924.16;;;16.02;92.95
30724;BME280;17473;52.286;20.930;2022-08-01T03:34:51;99921.53;;;16.03;92.85
30724;BME280;17473;52.286;20.930;2022-08-01T03:37:41;99931.28;;;16.06;92.57
30724;BME280;17473;52.286;20.930;2022-08-01T03:40:40;99928.63;;;16.07;92.27
30724;BME280;17473;52.286;20.930;2022-08-01T03:43:15;99933.94;;;16.07;92.40
30724;BME280;17473;52.286;20.930;2022-08-01T03:45:50;99934.84;;;16.05;92.76
30724;BME280;17473;52.286;20.930;2022-08-01T03:48:21;99929.50;;;16.05;92.72
30724;BME280;17473;52.286;20.930;2022-08-01T03:50:51;99940.16;;;16.05;93.08
30724;BME280;17473;52.286;20.930;2022-08-01T03:53:24;99936.59;;;16.03;93.07
30724;BME280;17473;52.286;20.930;2022-08-01T03:55:53;99941.94;;;16.04;93.19
30724;BME280;17473;52.286;20.930;2022-08-01T03:58:21;99935.72;;;16.02;93.01
30724;BME280;17473;52.286;20.930;2022-08-01T04:00:49;99942.81;;;16.06;93.22
30724;BME280;17473;52.286;20.930;2022-08-01T04:03:16;99947.28;;;16.10;92.75
30724;BME280;17473;52.286;20.930;2022-08-01T04:05:44;99949.03;;;16.10;92.82
30724;BME280;17473;52.286;20.930;2022-08-01T04:08:11;99949.97;;;16.14;92.80
30724;BME280;17473;52.286;20.930;2022-08-01T04:10:38;99955.31;;;16.15;92.83
30724;BME280;17473;52.286;20.930;2022-08-01T04:13:05;99949.97;;;16.17;93.06
30724;BME280;17473;52.286;20.930;2022-08-01T04:15:34;99957.97;;;16.20;92.90
30724;BME280;17473;52.286;20.930;2022-08-01T04:18:01;99955.34;;;16.29;92.66
30724;BME280;17473;52.286;20.930;2022-08-01T04:20:28;99957.16;;;16.30;92.57
30724;BME280;17473;52.286;20.930;2022-08-01T04:22:55;99958.03;;;16.34;92.17
30724;BME280;17473;52.286;20.930;2022-08-01T04:25:26;99951.81;;;16.30;92.34
30724;BME280;17473;52.286;20.930;2022-08-01T04:27:55;99954.44;;;16.28;92.23
30724;BME280;17473;52.286;20.930;2022-08-01T04:30:28;99960.69;;;16.32;92.29
30724;BME280;17473;52.286;20.930;2022-08-01T04:32:59;99958.03;;;16.34;92.43
30724;BME280;17473;52.286;20.930;2022-08-01T04:35:28;99950.91;;;16.34;92.48
30724;BME280;17473;52.286;20.930;2022-08-01T04:38:22;99957.19;;;16.50;91.70
30724;BME280;17473;52.286;20.930;2022-08-01T04:40:55;99958.09;;;16.58;91.62
30724;BME280;17473;52.286;20.930;2022-08-01T04:43:23;99965.19;;;16.55;91.75
30724;BME280;17473;52.286;20.930;2022-08-01T04:45:51;99967.00;;;16.68;91.23
30724;BME280;17473;52.286;20.930;2022-08-01T04:48:19;99964.38;;;16.79;90.91
30724;BME280;17473;52.286;20.930;2022-08-01T04:50:49;99971.47;;;16.82;90.90
30724;BME280;17473;52.286;20.930;2022-08-01T04:53:18;99968.84;;;16.85;90.43
30724;BME280;17473;52.286;20.930;2022-08-01T04:55:48;99967.97;;;16.94;89.95
30724;BME280;17473;52.286;20.930;2022-08-01T04:58:15;99969.75;;;17.01;88.92
30724;BME280;17473;52.286;20.930;2022-08-01T05:00:45;99973.31;;;17.17;88.37
30724;BME280;17473;52.286;20.930;2022-08-01T05:03:13;99976.88;;;17.25;87.60
30724;BME280;17473;52.286;20.930;2022-08-01T05:05:40;99958.19;;;17.22;87.52
30724;BME280;17473;52.286;20.930;2022-08-01T05:08:07;99973.34;;;17.34;86.89
30724;BME280;17473;52.286;20.930;2022-08-01T05:10:34;99980.44;;;17.26;87.00
30724;BME280;17473;52.286;20.930;2022-08-01T05:13:01;99986.66;;;17.26;86.71
30724;BME280;17473;52.286;20.930;2022-08-01T05:15:28;99981.34;;;17.34;86.32
30724;BME280;17473;52.286;20.930;2022-08-01T05:17:56;99991.09;;;17.29;86.67
30724;BME280;17473;52.286;20.930;2022-08-01T05:20:23;99987.47;;;17.92;83.55
30724;BME280;17473;52.286;20.930;2022-08-01T05:22:50;99990.94;;;19.66;74.63
30724;BME280;17473;52.286;20.930;2022-08-01T05:25:18;99987.38;;;22.96;62.65
30724;BME280;17473;52.286;20.930;2022-08-01T05:28:05;99979.00;;;24.75;54.67
30724;BME280;17473;52.286;20.930;2022-08-01T05:30:32;99970.97;;;26.32;50.02
30724;BME280;17473;52.286;20.930;2022-08-01T05:32:59;99968.00;;;26.39;49.30
30724;BME280;17473;52.286;20.930;2022-08-01T05:35:26;99970.16;;;28.26;44.90
30724;BME280;17473;52.286;20.930;2022-08-01T05:38:13;99972.88;;;29.94;41.41
30724;BME280;17473;52.286;20.930;2022-08-01T05:40:40;99972.56;;;29.81;40.89
30724;BME280;17473;52.286;20.930;2022-08-01T05:43:07;99976.00;;;31.64;37.34
30724;BME280;17473;52.286;20.930;2022-08-01T05:45:34;99969.31;;;31.07;38.08
30724;BME280;17473;52.286;20.930;2022-08-01T05:48:02;99980.56;;;32.95;34.85
30724;BME280;17473;52.286;20.930;2022-08-01T05:50:29;99974.78;;;34.08;32.88
30724;BME280;17473;52.286;20.930;2022-08-01T05:52:56;99976.09;;;35.28;31.05
30724;BME280;17473;52.286;20.930;2022-08-01T05:55:22;99976.78;;;35.19;31.30
30724;BME280;17473;52.286;20.930;2022-08-01T05:57:50;99983.31;;;35.89;30.21
30724;BME280;17473;52.286;20.930;2022-08-01T06:00:17;99974.88;;;36.15;29.86
30724;BME280;17473;52.286;20.930;2022-08-01T06:02:44;99973.25;;;36.80;28.79
30724;BME280;17473;52.286;20.930;2022-08-01T06:05:11;99974.19;;;38.52;26.87
30724;BME280;17473;52.286;20.930;2022-08-01T06:07:39;99970.81;;;39.40;25.92
30724;BME280;17473;52.286;20.930;2022-08-01T06:10:08;99966.84;;;39.91;24.82
30724;BME280;17473;52.286;20.930;2022-08-01T06:12:36;99975.19;;;40.29;24.68
30724;BME280;17473;52.286;20.930;2022-08-01T06:15:05;99985.75;;;40.81;23.93
30724;BME280;17473;52.286;20.930;2022-08-01T06:17:32;99969.88;;;41.29;23.33
30724;BME280;17473;52.286;20.930;2022-08-01T06:19:59;99973.06;;;41.97;22.28
30724;BME280;17473;52.286;20.930;2022-08-01T06:22:26;99973.91;;;41.35;22.69
30724;BME280;17473;52.286;20.930;2022-08-01T06:24:53;99971.50;;;41.95;21.67
30724;BME280;17473;52.286;20.930;2022-08-01T06:27:20;99964.28;;;42.36;21.60
30724;BME280;17473;52.286;20.930;2022-08-01T06:29:48;99968.44;;;42.32;21.49
30724;BME280;17473;52.286;20.930;2022-08-01T06:32:21;99966.19;;;41.83;22.37
30724;BME280;17473;52.286;20.930;2022-08-01T06:34:53;99966.00;;;42.72;21.00
30724;BME280;17473;52.286;20.930;2022-08-01T06:37:21;99980.31;;;42.51;21.15
30724;BME280;17473;52.286;20.930;2022-08-01T06:39:48;99983.91;;;42.43;21.21
30724;BME280;17473;52.286;20.930;2022-08-01T06:42:16;99990.66;;;41.70;21.96
30724;BME280;17473;52.286;20.930;2022-08-01T06:44:44;99980.63;;;42.13;21.16
30724;BME280;17473;52.286;20.930;2022-08-01T06:47:12;99985.69;;;41.73;22.09
30724;BME280;17473;52.286;20.930;2022-08-01T06:49:39;99981.91;;;41.56;21.97
30724;BME280;17473;52.286;20.930;2022-08-01T06:52:06;99983.47;;;41.59;21.96
30724;BME280;17473;52.286;20.930;2022-08-01T06:54:34;99990.41;;;41.09;22.47
30724;BME280;17473;52.286;20.930;2022-08-01T06:57:04;99986.44;;;42.97;20.73
30724;BME280;17473;52.286;20.930;2022-08-01T06:59:31;99975.63;;;42.51;20.71
30724;BME280;17473;52.286;20.930;2022-08-01T07:01:58;99986.69;;;42.43;20.61
30724;BME280;17473;52.286;20.930;2022-08-01T07:04:25;99985.38;;;41.58;21.14
30724;BME280;17473;52.286;20.930;2022-08-01T07:06:52;99972.13;;;42.76;20.73
30724;BME280;17473;52.286;20.930;2022-08-01T07:09:19;99976.09;;;42.73;20.59
30724;BME280;17473;52.286;20.930;2022-08-01T07:11:46;99974.63;;;43.04;20.54
30724;BME280;17473;52.286;20.930;2022-08-01T07:14:13;99977.25;;;42.62;20.60
30724;BME280;17473;52.286;20.930;2022-08-01T07:16:40;99989.81;;;42.40;20.69
30724;BME280;17473;52.286;20.930;2022-08-01T07:19:07;99979.78;;;42.47;20.89
30724;BME280;17473;52.286;20.930;2022-08-01T07:21:34;99975.69;;;43.11;20.04
30724;BME280;17473;52.286;20.930;2022-08-01T07:24:12;99979.75;;;43.33;19.96
30724;BME280;17473;52.286;20.930;2022-08-01T07:26:48;99979.50;;;42.59;20.23
30724;BME280;17473;52.286;20.930;2022-08-01T07:29:22;99976.81;;;41.70;20.88
30724;BME280;17473;52.286;20.930;2022-08-01T07:31:54;99961.06;;;41.70;21.20
30724;BME280;17473;52.286;20.930;2022-08-01T07:34:22;99959.44;;;41.86;21.38
30724;BME280;17473;52.286;20.930;2022-08-01T07:36:50;99966.91;;;41.31;21.86
30724;BME280;17473;52.286;20.930;2022-08-01T07:39:18;99955.47;;;41.88;21.16
30724;BME280;17473;52.286;20.930;2022-08-01T07:41:45;99964.66;;;42.33;20.80
30724;BME280;17473;52.286;20.930;2022-08-01T07:44:32;99974.34;;;42.72;20.35
30724;BME280;17473;52.286;20.930;2022-08-01T07:47:00;99973.66;;;43.38;19.38
30724;BME280;17473;52.286;20.930;2022-08-01T07:49:27;99973.97;;;42.59;20.25
30724;BME280;17473;52.286;20.930;2022-08-01T07:51:54;99974.44;;;42.97;19.79
30724;BME280;17473;52.286;20.930;2022-08-01T07:54:31;99957.94;;;42.44;20.42
30724;BME280;17473;52.286;20.930;2022-08-01T07:57:01;99957.81;;;42.28;20.47
30724;BME280;17473;52.286;20.930;2022-08-01T07:59:29;99954.16;;;41.92;20.71
30724;BME280;17473;52.286;20.930;2022-08-01T08:01:57;99968.50;;;41.34;21.34
30724;BME280;17473;52.286;20.930;2022-08-01T08:04:25;99960.03;;;41.71;20.96
30724;BME280;17473;52.286;20.930;2022-08-01T08:06:52;99956.81;;;41.22;21.22
30724;BME280;17473;52.286;20.930;2022-08-01T08:09:20;99946.34;;;41.70;20.49
30724;BME280;17473;52.286;20.930;2022-08-01T08:11:47;99966.31;;;41.55;20.94
30724;BME280;17473;52.286;20.930;2022-08-01T08:14:16;99960.66;;;41.29;21.37
30724;BME280;17473;52.286;20.930;2022-08-01T08:16:44;99962.56;;;42.09;20.10
30724;BME280;17473;52.286;20.930;2022-08-01T08:19:12;99962.63;;;41.73;20.77
30724;BME280;17473;52.286;20.930;2022-08-01T08:21:39;99971.34;;;41.24;21.37
30724;BME280;17473;52.286;20.930;2022-08-01T08:24:11;99971.75;;;41.11;21.68
30724;BME280;17473;52.286;20.930;2022-08-01T08:26:58;99971.44;;;40.58;21.98
30724;BME280;17473;52.286;20.930;2022-08-01T08:29:27;99963.09;;;39.73;22.26
30724;BME280;17473;52.286;20.930;2022-08-01T08:31:57;99961.31;;;39.03;23.10
30724;BME280;17473;52.286;20.930;2022-08-01T08:34:26;99975.94;;;38.94;23.21
30724;BME280;17473;52.286;20.930;2022-08-01T08:36:55;99980.63;;;38.62;23.48
30724;BME280;17473;52.286;20.930;2022-08-01T08:39:25;99969.16;;;38.57;23.48
30724;BME280;17473;52.286;20.930;2022-08-01T08:41:52;99971.34;;;38.01;24.94
30724;BME280;17473;52.286;20.930;2022-08-01T08:44:19;99979.09;;;38.39;23.76
30724;BME280;17473;52.286;20.930;2022-08-01T08:46:50;99982.06;;;38.26;23.63
30724;BME280;17473;52.286;20.930;2022-08-01T08:49:26;99986.19;;;38.10;24.14
30724;BME280;17473;52.286;20.930;2022-08-01T08:52:04;99988.88;;;37.47;24.46
30724;BME280;17473;52.286;20.930;2022-08-01T08:54:37;99988.06;;;37.23;24.69
30724;BME280;17473;52.286;20.930;2022-08-01T08:57:06;99978.75;;;36.80;25.76
30724;BME280;17473;52.286;20.930;2022-08-01T08:59:34;99989.75;;;37.03;25.58
30724;BME280;17473;52.286;20.930;2022-08-01T09:02:01;99988.94;;;36.57;26.11
30724;BME280;17473;52.286;20.930;2022-08-01T09:04:28;99997.00;;;37.04;25.59
30724;BME280;17473;52.286;20.930;2022-08-01T09:06:56;99998.03;;;36.92;25.53
30724;BME280;17473;52.286;20.930;2022-08-01T09:09:23;100000.28;;;36.98;25.42
30724;BME280;17473;52.286;20.930;2022-08-01T09:11:51;99995.53;;;36.77;25.64
30724;BME280;17473;52.286;20.930;2022-08-01T09:14:32;99980.88;;;36.77;25.42
30724;BME280;17473;52.286;20.930;2022-08-01T09:17:09;99992.00;;;36.18;26.33
30724;BME280;17473;52.286;20.930;2022-08-01T09:19:49;99995.41;;;35.86;26.44
30724;BME280;17473;52.286;20.930;2022-08-01T09:22:23;99999.66;;;35.06;27.25
30724;BME280;17473;52.286;20.930;2022-08-01T09:25:07;99999.91;;;35.03;27.11
30724;BME280;17473;52.286;20.930;2022-08-01T09:27:37;99998.16;;;35.26;26.71
30724;BME280;17473;52.286;20.930;2022-08-01T09:30:14;100007.50;;;34.87;27.92
30724;BME280;17473;52.286;20.930;2022-08-01T09:33:02;100000.09;;;34.50;28.05
30724;BME280;17473;52.286;20.930;2022-08-01T09:35:37;100006.47;;;34.88;28.13
30724;BME280;17473;52.286;20.930;2022-08-01T09:38:24;100008.28;;;34.63;28.45
30724;BME280;17473;52.286;20.930;2022-08-01T09:43:26;99987.91;;;35.29;27.99
30724;BME280;17473;52.286;20.930;2022-08-01T09:45:55;99989.25;;;35.71;27.68
30724;BME280;17473;52.286;20.930;2022-08-01T09:48:24;99993.13;;;35.69;27.44
30724;BME280;17473;52.286;20.930;2022-08-01T09:50:59;99997.59;;;35.94;26.82
30724;BME280;17473;52.286;20.930;2022-08-01T09:53:48;99996.84;;;35.92;27.39
30724;BME280;17473;52.286;20.930;2022-08-01T09:56:20;99992.06;;;35.34;27.53
30724;BME280;17473;52.286;20.930;2022-08-01T09:58:56;99995.63;;;35.23;28.15
30724;BME280;17473;52.286;20.930;2022-08-01T10:01:43;99993.56;;;34.90;28.14
30724;BME280;17473;52.286;20.930;2022-08-01T10:04:20;99998.84;;;34.80;27.87
30724;BME280;17473;52.286;20.930;2022-08-01T10:06:50;100001.56;;;34.93;27.97
30724;BME280;17473;52.286;20.930;2022-08-01T10:09:32;99988.28;;;35.24;28.13
30724;BME280;17473;52.286;20.930;2022-08-01T10:12:07;99993.81;;;34.61;28.89
30724;BME280;17473;52.286;20.930;2022-08-01T10:14:43;99994.53;;;34.89;28.45
30724;BME280;17473;52.286;20.930;2022-08-01T10:17:14;100002.34;;;34.82;29.31
30724;BME280;17473;52.286;20.930;2022-08-01T10:19:46;99997.44;;;35.12;28.52
30724;BME280;17473;52.286;20.930;2022-08-01T10:22:14;99996.22;;;34.78;28.44
30724;BME280;17473;52.286;20.930;2022-08-01T10:24:47;99994.00;;;34.84;29.15
30724;BME280;17473;52.286;20.930;2022-08-01T10:27:17;99992.00;;;34.48;28.75
30724;BME280;17473;52.286;20.930;2022-08-01T10:30:04;99987.50;;;34.35;29.31
30724;BME280;17473;52.286;20.930;2022-08-01T10:32:47;99981.25;;;34.45;28.74
30724;BME280;17473;52.286;20.930;2022-08-01T10:35:16;99998.22;;;33.99;29.32
30724;BME280;17473;52.286;20.930;2022-08-01T10:38:04;99980.63;;;33.76;29.21
30724;BME280;17473;52.286;20.930;2022-08-01T10:40:37;99986.88;;;33.78;29.27
30724;BME280;17473;52.286;20.930;2022-08-01T10:43:05;99986.84;;;34.05;29.17
30724;BME280;17473;52.286;20.930;2022-08-01T10:45:34;99988.56;;;33.13;29.98
30724;BME280;17473;52.286;20.930;2022-08-01T10:48:20;99992.75;;;32.47;31.06
30724;BME280;17473;52.286;20.930;2022-08-01T10:50:53;99991.81;;;32.76;30.90
30724;BME280;17473;52.286;20.930;2022-08-01T10:53:24;99995.19;;;32.81;30.73
30724;BME280;17473;52.286;20.930;2022-08-01T10:56:08;99986.00;;;33.09;30.63
30724;BME280;17473;52.286;20.930;2022-08-01T10:58:44;99996.53;;;32.88;31.06
30724;BME280;17473;52.286;20.930;2022-08-01T11:01:46;99989.72;;;32.52;31.37
30724;BME280;17473;52.286;20.930;2022-08-01T11:04:55;99986.59;;;32.58;31.49
30724;BME280;17473;52.286;20.930;2022-08-01T11:07:46;99994.16;;;32.10;31.92
30724;BME280;17473;52.286;20.930;2022-08-01T11:10:40;99981.97;;;32.01;32.75
30724;BME280;17473;52.286;20.930;2022-08-01T11:13:09;99983.22;;;31.02;35.14
30724;BME280;17473;52.286;20.930;2022-08-01T11:15:41;99981.72;;;30.65;36.75
30724;BME280;17473;52.286;20.930;2022-08-01T11:21:02;99985.88;;;29.87;37.45
30724;BME280;17473;52.286;20.930;2022-08-01T11:23:50;99988.16;;;29.96;40.47
30724;BME280;17473;52.286;20.930;2022-08-01T11:26:23;99978.59;;;29.70;37.61
30724;BME280;17473;52.286;20.930;2022-08-01T11:29:14;99970.78;;;29.64;37.99
30724;BME280;17473;52.286;20.930;2022-08-01T11:31:49;99981.25;;;29.72;37.95
30724;BME280;17473;52.286;20.930;2022-08-01T11:34:17;99982.59;;;29.63;37.20
30724;BME280;17473;52.286;20.930;2022-08-01T11:36:45;99981.63;;;29.81;39.42
30724;BME280;17473;52.286;20.930;2022-08-01T11:39:29;99981.50;;;29.67;39.44
30724;BME280;17473;52.286;20.930;2022-08-01T11:42:18;99972.03;;;29.39;39.02
30724;BME280;17473;52.286;20.930;2022-08-01T11:44:50;99985.63;;;29.39;40.16
30724;BME280;17473;52.286;20.930;2022-08-01T11:47:18;99984.66;;;29.03;39.90
30724;BME280;17473;52.286;20.930;2022-08-01T11:49:48;99991.06;;;28.83;41.49
30724;BME280;17473;52.286;20.930;2022-08-01T11:52:31;99985.41;;;28.88;40.38
30724;BME280;17473;52.286;20.930;2022-08-01T11:55:08;99983.38;;;28.74;40.41
30724;BME280;17473;52.286;20.930;2022-08-01T11:57:37;99972.22;;;28.40;40.72
30724;BME280;17473;52.286;20.930;2022-08-01T12:02:48;99977.97;;;28.53;40.09
30724;BME280;17473;52.286;20.930;2022-08-01T12:05:26;99984.22;;;28.55;40.36
30724;BME280;17473;52.286;20.930;2022-08-01T12:07:57;99983.19;;;28.58;41.69
30724;BME280;17473;52.286;20.930;2022-08-01T12:10:32;99971.38;;;28.59;40.16
30724;BME280;17473;52.286;20.930;2022-08-01T12:13:15;99987.00;;;28.54;39.91
30724;BME280;17473;52.286;20.930;2022-08-01T12:15:42;99988.56;;;28.60;39.39
30724;BME280;17473;52.286;20.930;2022-08-01T12:18:10;99980.97;;;28.66;40.26
30724;BME280;17473;52.286;20.930;2022-08-01T12:20:43;99982.06;;;28.43;40.48
30724;BME280;17473;52.286;20.930;2022-08-01T12:23:22;99979.34;;;28.24;41.31
30724;BME280;17473;52.286;20.930;2022-08-01T12:25:53;99977.97;;;28.34;40.30
30724;BME280;17473;52.286;20.930;2022-08-01T12:28:20;99975.63;;;28.46;40.30
30724;BME280;17473;52.286;20.930;2022-08-01T12:30:49;99978.03;;;28.52;40.41
30724;BME280;17473;52.286;20.930;2022-08-01T12:33:20;99980.75;;;28.52;40.45
30724;BME280;17473;52.286;20.930;2022-08-01T12:35:48;99979.50;;;28.59;40.60
30724;BME280;17473;52.286;20.930;2022-08-01T12:38:18;99980.09;;;28.66;40.16
30724;BME280;17473;52.286;20.930;2022-08-01T12:40:47;99984.72;;;28.45;39.72
30724;BME280;17473;52.286;20.930;2022-08-01T12:43:22;99974.44;;;28.32;40.21
30724;BME280;17473;52.286;20.930;2022-08-01T12:45:57;99967.50;;;28.46;39.58
30724;BME280;17473;52.286;20.930;2022-08-01T12:48:26;99970.50;;;28.58;39.19
30724;BME280;17473;52.286;20.930;2022-08-01T12:50:55;99974.69;;;28.66;39.67
30724;BME280;17473;52.286;20.930;2022-08-01T12:53:25;99967.91;;;28.55;40.42
30724;BME280;17473;52.286;20.930;2022-08-01T12:56:05;99970.84;;;28.51;40.26
30724;BME280;17473;52.286;20.930;2022-08-01T12:58:33;99973.19;;;28.39;40.69
30724;BME280;17473;52.286;20.930;2022-08-01T13:01:10;99969.31;;;28.64;40.61
30724;BME280;17473;52.286;20.930;2022-08-01T13:03:38;99968.97;;;28.72;41.22
30724;BME280;17473;52.286;20.930;2022-08-01T13:06:14;99959.78;;;28.55;40.83
30724;BME280;17473;52.286;20.930;2022-08-01T13:08:44;99966.25;;;28.53;40.86
30724;BME280;17473;52.286;20.930;2022-08-01T13:11:14;99962.84;;;28.48;41.49
30724;BME280;17473;52.286;20.930;2022-08-01T13:13:48;99961.59;;;28.36;41.55
30724;BME280;17473;52.286;20.930;2022-08-01T13:16:20;99949.44;;;28.05;41.72
30724;BME280;17473;52.286;20.930;2022-08-01T13:19:04;99964.72;;;28.07;41.84
30724;BME280;17473;52.286;20.930;2022-08-01T13:21:32;99973.47;;;28.14;41.67
30724;BME280;17473;52.286;20.930;2022-08-01T13:24:28;99955.69;;;27.86;42.66
30724;BME280;17473;52.286;20.930;2022-08-01T13:27:03;99960.03;;;28.11;41.87
30724;BME280;17473;52.286;20.930;2022-08-01T13:29:35;99970.31;;;28.23;41.42
30724;BME280;17473;52.286;20.930;2022-08-01T13:32:21;99965.75;;;28.03;41.54